createdAt,value
2022-12-26T00:00:20.013Z,200.73
2022-12-26T00:02:46.539Z,176.18
2022-12-26T00:05:12.956Z,208.32
2022-12-26T00:07:39.429Z,200.88
2022-12-26T00:10:06.407Z,182.15
2022-12-26T00:12:32.925Z,149.32
2022-12-26T00:14:59.294Z,151.73
2022-12-26T00:17:25.669Z,149.63
2022-12-26T00:19:52.027Z,117.35
2022-12-26T00:22:18.613Z,122.63
2022-12-26T00:24:44.959Z,117.75
2022-12-26T00:27:11.303Z,124.10
2022-12-26T00:29:37.642Z,133.80
2022-12-26T00:32:04.325Z,114.10
2022-12-26T00:34:30.865Z,119.82
2022-12-26T00:36:57.214Z,110.43
2022-12-26T00:39:23.537Z,104.70
2022-12-26T00:41:49.891Z,110.90
2022-12-26T00:44:16.246Z,114.65
2022-12-26T00:46:42.642Z,137.25
2022-12-26T00:49:09.051Z,117.07
2022-12-26T00:51:38.265Z,102.90
2022-12-26T00:54:04.673Z,104.47
2022-12-26T00:56:31.002Z,114.43
2022-12-26T00:58:57.369Z,101.90
2022-12-26T01:01:24.069Z,104.88
2022-12-26T01:03:51.265Z,103.65
2022-12-26T01:06:18.249Z,109.88
2022-12-26T01:08:44.998Z,106.55
2022-12-26T01:11:13.753Z,96.38
2022-12-26T01:13:40.544Z,125.15
2022-12-26T01:16:07.939Z,103.45
2022-12-26T01:18:34.941Z,110.22
2022-12-26T01:21:04.481Z,112.22
2022-12-26T01:23:30.901Z,109.57
2022-12-26T01:26:16.940Z,128.02
2022-12-26T01:28:43.654Z,100.70
2022-12-26T01:31:10.035Z,124.88
2022-12-26T01:33:36.553Z,136.60
2022-12-26T01:36:04.225Z,126.57
2022-12-26T01:38:30.586Z,144.63
2022-12-26T01:41:15.569Z,165.00
2022-12-26T01:44:00.024Z,128.68
2022-12-26T01:46:35.732Z,110.25
2022-12-26T01:49:08.989Z,139.10
2022-12-26T01:51:40.070Z,141.52
2022-12-26T01:54:37.948Z,152.45
2022-12-26T01:56:56.253Z,141.75
2022-12-26T01:59:26.479Z,156.05
2022-12-26T02:01:54.648Z,162.32
2022-12-26T02:04:48.313Z,190.95
2022-12-26T02:07:14.925Z,173.68
2022-12-26T02:09:41.585Z,182.82
2022-12-26T02:12:36.081Z,178.02
2022-12-26T02:15:03.635Z,160.20
2022-12-26T02:17:30.095Z,176.05
2022-12-26T02:20:01.937Z,190.98
2022-12-26T02:22:47.114Z,192.20
2022-12-26T02:25:58.535Z,184.45
2022-12-26T02:28:53.064Z,125.82
2022-12-26T02:31:32.022Z,170.02
2022-12-26T02:34:15.912Z,201.63
2022-12-26T02:37:18.549Z,211.10
2022-12-26T02:40:04.039Z,187.88
2022-12-26T02:42:47.424Z,189.20
2022-12-26T02:45:46.842Z,202.18
2022-12-26T02:49:02.023Z,187.50
2022-12-26T02:52:19.728Z,132.57
2022-12-26T02:55:12.851Z,149.02
2022-12-26T02:58:09.289Z,158.93
2022-12-26T03:00:58.184Z,156.50
2022-12-26T03:03:48.828Z,152.98
2022-12-26T03:06:48.041Z,138.57
2022-12-26T03:09:37.248Z,143.75
2022-12-26T03:12:26.997Z,134.00
2022-12-26T03:15:04.216Z,133.45
2022-12-26T03:17:40.664Z,117.50
2022-12-26T03:20:17.544Z,152.32
2022-12-26T03:22:57.005Z,148.98
2022-12-26T03:25:59.325Z,148.38
2022-12-26T03:28:26.842Z,98.30
2022-12-26T03:30:55.864Z,139.25
2022-12-26T03:33:40.996Z,137.63
2022-12-26T03:36:11.268Z,99.78
2022-12-26T03:39:13.022Z,116.18
2022-12-26T03:42:17.977Z,86.65
2022-12-26T03:45:05.802Z,88.97
2022-12-26T03:48:18.637Z,83.75
2022-12-26T03:51:09.049Z,82.00
2022-12-26T03:54:06.370Z,77.53
2022-12-26T03:57:01.376Z,84.07
2022-12-26T04:02:39.916Z,56.50
2022-12-26T04:05:27.272Z,69.95
2022-12-26T04:08:19.187Z,68.72
2022-12-26T04:11:11.072Z,70.70
2022-12-26T04:14:12.045Z,75.55
2022-12-26T04:17:03.382Z,73.40
2022-12-26T04:19:32.423Z,75.05
2022-12-26T04:22:27.559Z,77.32
2022-12-26T04:25:50.816Z,72.20
2022-12-26T04:28:38.520Z,69.25
2022-12-26T04:31:33.039Z,70.85
2022-12-26T04:34:28.888Z,68.50
2022-12-26T04:37:21.854Z,66.72
2022-12-26T04:40:10.063Z,81.22
2022-12-26T04:42:57.379Z,86.90
2022-12-26T04:45:25.952Z,86.88
2022-12-26T04:48:11.035Z,96.75
2022-12-26T04:50:52.188Z,95.68
2022-12-26T04:53:19.976Z,94.80
2022-12-26T04:55:46.305Z,97.40
2022-12-26T04:58:12.634Z,107.40
2022-12-26T05:00:39.137Z,121.55
2022-12-26T05:03:24.114Z,118.28
2022-12-26T05:06:10.505Z,93.50
2022-12-26T05:08:59.106Z,107.63
2022-12-26T05:11:26.681Z,92.22
2022-12-26T05:13:55.368Z,114.18
2022-12-26T05:16:41.729Z,131.68
2022-12-26T05:19:29.474Z,116.65
2022-12-26T05:22:14.945Z,113.15
2022-12-26T05:25:00.581Z,126.90
2022-12-26T05:28:00.882Z,129.50
2022-12-26T05:30:27.324Z,130.88
2022-12-26T05:33:12.289Z,161.30
2022-12-26T05:35:39.374Z,134.75
2022-12-26T05:38:06.179Z,162.77
2022-12-26T05:40:32.583Z,179.93
2022-12-26T05:42:58.973Z,183.85
2022-12-26T05:45:25.371Z,203.88
2022-12-26T05:47:58.394Z,209.00
2022-12-26T05:50:24.724Z,182.57
2022-12-26T05:52:51.072Z,194.15
2022-12-26T05:55:18.041Z,204.55
2022-12-26T05:57:44.420Z,207.80
2022-12-26T06:00:11.802Z,173.38
2022-12-26T06:02:38.724Z,151.95
2022-12-26T06:05:05.494Z,147.40
2022-12-26T06:07:31.856Z,135.05
2022-12-26T06:09:58.236Z,139.57
2022-12-26T06:12:24.547Z,130.55
2022-12-26T06:14:50.926Z,136.95
2022-12-26T06:17:17.279Z,148.32
2022-12-26T06:19:46.927Z,141.98
2022-12-26T06:22:13.621Z,136.48
2022-12-26T06:24:40.226Z,102.45
2022-12-26T06:27:06.584Z,112.75
2022-12-26T06:29:32.975Z,101.70
2022-12-26T06:31:59.447Z,119.53
2022-12-26T06:34:27.620Z,125.95
2022-12-26T06:36:55.402Z,127.43
2022-12-26T06:39:22.538Z,123.35
2022-12-26T06:41:48.860Z,111.30
2022-12-26T06:44:18.523Z,120.32
2022-12-26T06:46:45.431Z,118.40
2022-12-26T06:49:11.809Z,156.15
2022-12-26T06:51:38.228Z,119.18
2022-12-26T06:54:04.860Z,121.60
2022-12-26T06:56:32.339Z,126.43
2022-12-26T06:59:01.017Z,117.35
2022-12-26T07:01:29.085Z,115.97
2022-12-26T07:03:56.476Z,119.57
2022-12-26T07:06:31.940Z,111.40
2022-12-26T07:09:05.328Z,87.10
2022-12-26T07:11:36.930Z,120.23
2022-12-26T07:14:04.363Z,96.20
2022-12-26T07:16:31.316Z,96.30
2022-12-26T07:18:58.586Z,101.35
2022-12-26T07:21:26.276Z,92.70
2022-12-26T07:23:53.850Z,130.43
2022-12-26T07:26:20.616Z,68.05
2022-12-26T07:28:46.997Z,60.15
2022-12-26T07:31:18.485Z,65.00
2022-12-26T07:33:52.612Z,41.20
2022-12-26T07:36:19.632Z,46.35
2022-12-26T07:38:46.901Z,52.65
2022-12-26T07:41:32.014Z,43.58
2022-12-26T07:43:58.429Z,41.17
2022-12-26T07:46:24.769Z,37.67
2022-12-26T07:48:51.179Z,40.72
2022-12-26T07:51:17.552Z,41.30
2022-12-26T07:53:43.903Z,37.88
2022-12-26T07:56:10.249Z,37.78
2022-12-26T07:58:36.818Z,38.33
2022-12-26T08:01:04.961Z,40.40
2022-12-26T08:03:31.566Z,41.97
2022-12-26T08:05:58.412Z,49.25
2022-12-26T08:08:24.739Z,36.20
2022-12-26T08:11:06.228Z,39.45
2022-12-26T08:13:33.946Z,43.63
2022-12-26T08:16:05.536Z,39.88
2022-12-26T08:18:31.972Z,41.13
2022-12-26T08:20:58.607Z,40.58
2022-12-26T08:23:25.061Z,41.85
2022-12-26T08:25:51.463Z,35.83
2022-12-26T08:28:18.043Z,42.47
2022-12-26T08:30:45.437Z,40.85
2022-12-26T08:33:12.816Z,43.40
2022-12-26T08:35:40.359Z,40.50
2022-12-26T08:38:08.042Z,42.15
2022-12-26T08:40:43.041Z,46.42
2022-12-26T08:46:03.148Z,42.15
2022-12-26T08:48:30.281Z,44.30
2022-12-26T08:51:02.313Z,43.33
2022-12-26T08:53:30.517Z,42.95
2022-12-26T08:55:57.594Z,43.78
2022-12-26T08:58:24.066Z,50.10
2022-12-26T09:00:55.265Z,50.58
2022-12-26T09:03:22.375Z,50.30
2022-12-26T09:05:49.193Z,51.95
2022-12-26T09:08:15.573Z,57.63
2022-12-26T09:10:41.998Z,63.40
2022-12-26T09:13:08.436Z,62.17
2022-12-26T09:15:34.873Z,63.05
2022-12-26T09:18:01.290Z,73.15
2022-12-26T09:20:27.690Z,57.45
2022-12-26T09:22:55.341Z,57.13
2022-12-26T09:25:25.041Z,63.20
2022-12-26T09:27:58.807Z,52.47
2022-12-26T09:30:25.606Z,61.08
2022-12-26T09:32:53.042Z,61.65
2022-12-26T09:35:19.587Z,53.72
2022-12-26T09:37:45.971Z,54.10
2022-12-26T09:40:25.493Z,51.75
2022-12-26T09:43:53.577Z,46.22
2022-12-26T09:46:40.827Z,45.20
2022-12-26T09:49:20.225Z,40.33
2022-12-26T09:51:52.582Z,43.03
2022-12-26T09:54:33.632Z,43.92
2022-12-26T09:57:05.280Z,44.63
2022-12-26T09:59:57.501Z,38.35
2022-12-26T10:02:26.059Z,38.10
2022-12-26T10:04:54.739Z,36.15
2022-12-26T10:07:24.053Z,31.13
2022-12-26T10:09:59.493Z,30.88
2022-12-26T10:12:51.939Z,28.40
2022-12-26T10:15:36.825Z,27.58
2022-12-26T10:18:18.048Z,27.17
2022-12-26T10:20:59.299Z,26.08
2022-12-26T10:23:39.737Z,23.05
2022-12-26T10:26:13.463Z,25.05
2022-12-26T10:28:59.845Z,23.83
2022-12-26T10:31:50.612Z,21.60
2022-12-26T10:34:36.719Z,21.98
2022-12-26T10:37:42.029Z,20.60
2022-12-26T10:42:47.500Z,23.58
2022-12-26T10:45:24.328Z,28.40
2022-12-26T10:47:51.770Z,18.17
2022-12-26T10:50:28.099Z,32.83
2022-12-26T10:52:55.841Z,19.95
2022-12-26T10:55:31.814Z,18.92
2022-12-26T10:58:06.926Z,18.02
2022-12-26T11:00:34.410Z,17.58
2022-12-26T11:03:15.632Z,15.02
2022-12-26T11:06:10.363Z,13.25
2022-12-26T11:08:46.102Z,14.32
2022-12-26T11:11:45.447Z,14.25
2022-12-26T11:14:34.171Z,13.27
2022-12-26T11:17:04.946Z,15.35
2022-12-26T11:19:38.140Z,11.85
2022-12-26T11:22:27.783Z,12.90
2022-12-26T11:25:09.551Z,11.20
2022-12-26T11:27:39.919Z,15.25
2022-12-26T11:30:27.784Z,12.75
2022-12-26T11:33:14.255Z,11.85
2022-12-26T11:35:52.516Z,15.45
2022-12-26T11:38:42.505Z,23.98
2022-12-26T11:41:32.267Z,21.77
2022-12-26T11:44:22.496Z,19.58
2022-12-26T11:47:07.864Z,26.77
2022-12-26T11:50:01.535Z,28.13
2022-12-26T11:52:57.771Z,28.02
2022-12-26T11:55:24.123Z,26.88
2022-12-26T11:57:59.063Z,25.05
2022-12-26T12:00:26.216Z,27.00
2022-12-26T12:02:52.692Z,26.50
2022-12-26T12:05:35.350Z,27.23
2022-12-26T12:08:15.679Z,33.22
2022-12-26T12:10:51.033Z,32.92
2022-12-26T12:13:38.897Z,37.28
2022-12-26T12:16:08.239Z,37.33
2022-12-26T12:18:46.830Z,35.67
2022-12-26T12:21:31.739Z,41.05
2022-12-26T12:24:26.413Z,39.83
2022-12-26T12:27:09.473Z,38.65
2022-12-26T12:30:17.189Z,36.25
2022-12-26T12:32:57.299Z,35.17
2022-12-26T12:36:13.012Z,42.58
2022-12-26T12:38:57.692Z,43.47
2022-12-26T12:44:07.229Z,37.20
2022-12-26T12:47:19.287Z,52.80
2022-12-26T12:49:48.538Z,54.67
2022-12-26T12:52:34.612Z,65.15
2022-12-26T12:55:27.796Z,59.92
2022-12-26T12:58:12.908Z,49.47
2022-12-26T13:00:48.861Z,37.78
2022-12-26T13:03:44.293Z,38.63
2022-12-26T13:06:16.697Z,28.92
2022-12-26T13:08:48.313Z,36.58
2022-12-26T13:11:19.937Z,37.03
2022-12-26T13:13:53.802Z,37.83
2022-12-26T13:16:25.602Z,40.50
2022-12-26T13:19:05.539Z,41.45
2022-12-26T13:21:35.987Z,40.15
2022-12-26T13:24:24.581Z,33.17
2022-12-26T13:27:03.213Z,25.40
2022-12-26T13:29:45.546Z,26.65
2022-12-26T13:32:23.001Z,31.35
2022-12-26T13:34:51.616Z,31.10
2022-12-26T13:37:39.885Z,25.00
2022-12-26T13:40:16.746Z,29.35
2022-12-26T13:43:10.835Z,24.92
2022-12-26T13:45:37.273Z,29.88
2022-12-26T13:48:15.912Z,27.10
2022-12-26T13:50:56.613Z,25.75
2022-12-26T13:53:25.986Z,22.13
2022-12-26T13:56:04.675Z,18.20
2022-12-26T13:58:54.209Z,18.48
2022-12-26T14:01:32.594Z,18.23
2022-12-26T14:04:14.279Z,17.73
2022-12-26T14:06:53.073Z,14.85
2022-12-26T14:09:32.702Z,10.30
2022-12-26T14:12:23.492Z,8.25
2022-12-26T14:15:01.637Z,7.82
2022-12-26T14:17:48.985Z,10.32
2022-12-26T14:20:39.436Z,10.25
2022-12-26T14:23:20.090Z,11.38
2022-12-26T14:26:02.713Z,10.82
2022-12-26T14:29:01.849Z,10.98
2022-12-26T14:31:40.306Z,10.73
2022-12-26T14:34:55.615Z,11.82
2022-12-26T14:37:35.656Z,10.13
2022-12-26T14:40:26.956Z,10.60
2022-12-26T14:43:11.957Z,12.00
2022-12-26T14:45:41.733Z,10.98
2022-12-26T14:48:17.009Z,11.88
2022-12-26T14:50:51.820Z,11.45
2022-12-26T14:53:24.336Z,11.98
2022-12-26T14:55:53.638Z,11.85
2022-12-26T14:58:26.282Z,11.85
2022-12-26T15:00:53.716Z,9.40
2022-12-26T15:03:36.864Z,8.18
2022-12-26T15:06:18.609Z,7.80
2022-12-26T15:09:04.047Z,8.27
2022-12-26T15:12:06.436Z,8.65
2022-12-26T15:14:54.107Z,7.50
2022-12-26T15:17:26.413Z,8.55
2022-12-26T15:20:25.568Z,7.70
2022-12-26T15:23:07.175Z,8.35
2022-12-26T15:25:59.064Z,7.68
2022-12-26T15:28:43.716Z,11.57
2022-12-26T15:33:53.086Z,7.95
2022-12-26T15:36:57.689Z,7.30
2022-12-26T15:39:43.591Z,7.57
2022-12-26T15:42:48.001Z,9.07
2022-12-26T15:45:42.389Z,8.80
2022-12-26T15:48:31.936Z,6.60
2022-12-26T15:51:09.548Z,6.72
2022-12-26T15:53:54.276Z,9.93
2022-12-26T15:56:39.008Z,6.13
2022-12-26T15:59:30.481Z,6.85
2022-12-26T16:01:58.339Z,6.57
2022-12-26T16:04:37.056Z,6.05
2022-12-26T16:07:08.993Z,8.23
2022-12-26T16:09:43.160Z,6.97
2022-12-26T16:15:00.703Z,5.25
2022-12-26T16:17:27.994Z,6.13
2022-12-26T16:19:54.601Z,6.30
2022-12-26T16:22:44.529Z,6.80
2022-12-26T16:25:16.723Z,5.60
2022-12-26T16:27:45.677Z,6.18
2022-12-26T16:30:16.400Z,6.20
2022-12-26T16:32:46.299Z,7.85
2022-12-26T16:35:26.031Z,5.13
2022-12-26T16:37:55.107Z,6.65
2022-12-26T16:40:31.374Z,5.72
2022-12-26T16:43:25.957Z,5.63
2022-12-26T16:45:55.281Z,6.03
2022-12-26T16:48:24.141Z,8.07
2022-12-26T16:50:55.614Z,11.45
2022-12-26T16:53:42.454Z,5.18
2022-12-26T16:56:27.758Z,8.63
2022-12-26T16:59:17.354Z,5.80
2022-12-26T17:01:50.311Z,5.07
2022-12-26T17:04:25.227Z,8.35
2022-12-26T17:06:55.971Z,6.18
2022-12-26T17:09:24.360Z,6.22
2022-12-26T17:11:53.521Z,7.43
2022-12-26T17:14:25.221Z,6.65
2022-12-26T17:17:01.087Z,11.30
2022-12-26T17:19:31.521Z,5.38
2022-12-26T17:22:22.791Z,7.03
2022-12-26T17:24:51.383Z,5.22
2022-12-26T17:27:23.304Z,8.50
2022-12-26T17:30:01.305Z,10.40
2022-12-26T17:32:37.098Z,7.13
2022-12-26T17:35:16.635Z,6.63
2022-12-26T17:37:44.110Z,9.00
2022-12-26T17:40:13.497Z,8.48
2022-12-26T17:42:48.893Z,7.85
2022-12-26T17:45:27.470Z,8.10
2022-12-26T17:47:55.278Z,7.00
2022-12-26T17:50:23.965Z,9.02
2022-12-26T17:52:51.027Z,7.95
2022-12-26T17:55:26.726Z,6.07
2022-12-26T17:57:53.695Z,7.65
2022-12-26T18:00:22.971Z,11.55
2022-12-26T18:02:49.866Z,7.80
2022-12-26T18:05:17.356Z,9.32
2022-12-26T18:07:45.685Z,6.82
2022-12-26T18:10:21.750Z,12.82
2022-12-26T18:12:48.690Z,9.32
2022-12-26T18:15:15.651Z,8.13
2022-12-26T18:17:42.469Z,11.18
2022-12-26T18:20:15.919Z,11.45
2022-12-26T18:22:42.281Z,9.52
2022-12-26T18:25:11.986Z,7.53
2022-12-26T18:27:38.635Z,8.40
2022-12-26T18:30:05.495Z,14.35
2022-12-26T18:32:33.604Z,9.27
2022-12-26T18:35:00.126Z,8.63
2022-12-26T18:37:29.258Z,6.97
2022-12-26T18:39:55.635Z,10.30
2022-12-26T18:42:22.074Z,7.07
2022-12-26T18:44:48.565Z,9.40
2022-12-26T18:47:20.015Z,6.82
2022-12-26T18:49:47.194Z,7.25
2022-12-26T18:52:17.504Z,11.93
2022-12-26T18:54:44.655Z,7.57
2022-12-26T18:57:17.593Z,8.80
2022-12-26T18:59:44.136Z,10.55
2022-12-26T19:02:16.751Z,11.27
2022-12-26T19:04:43.229Z,8.18
2022-12-26T19:07:11.234Z,9.07
2022-12-26T19:09:37.663Z,9.95
2022-12-26T19:12:04.370Z,10.50
2022-12-26T19:14:30.796Z,7.68
2022-12-26T19:16:57.140Z,6.72
2022-12-26T19:19:26.536Z,9.00
2022-12-26T19:21:52.894Z,8.43
2022-12-26T19:24:19.246Z,7.70
2022-12-26T19:26:45.712Z,6.82
2022-12-26T19:29:12.121Z,7.30
2022-12-26T19:31:38.604Z,6.93
2022-12-26T19:34:05.296Z,6.93
2022-12-26T19:36:31.678Z,8.77
2022-12-26T19:38:58.396Z,13.45
2022-12-26T19:41:24.769Z,13.27
2022-12-26T19:43:56.375Z,7.72
2022-12-26T19:46:23.365Z,9.27
2022-12-26T19:48:49.781Z,6.35
2022-12-26T19:51:17.168Z,7.35
2022-12-26T19:53:44.697Z,7.90
2022-12-26T19:56:23.724Z,9.25
2022-12-26T19:58:56.165Z,8.40
2022-12-26T20:01:25.922Z,13.13
2022-12-26T20:03:57.663Z,9.15
2022-12-26T20:06:26.433Z,8.43
2022-12-26T20:08:55.788Z,8.30
2022-12-26T20:11:24.723Z,11.68
2022-12-26T20:13:51.579Z,6.53
2022-12-26T20:16:54.477Z,6.75
2022-12-26T20:19:07.074Z,9.20
2022-12-26T20:21:33.887Z,11.52
2022-12-26T20:24:01.175Z,7.90
2022-12-26T20:26:28.971Z,8.32
2022-12-26T20:28:57.831Z,9.98
2022-12-26T20:31:24.213Z,6.93
2022-12-26T20:33:52.057Z,7.38
2022-12-26T20:36:21.236Z,8.70
2022-12-26T20:38:50.594Z,9.95
2022-12-26T20:41:17.553Z,9.07
2022-12-26T20:43:44.061Z,6.80
2022-12-26T20:46:14.399Z,7.68
2022-12-26T20:48:41.429Z,6.45
2022-12-26T20:51:10.279Z,7.30
2022-12-26T20:53:37.111Z,10.07
2022-12-26T20:56:04.463Z,8.82
2022-12-26T20:58:35.593Z,6.80
2022-12-26T21:01:08.001Z,6.78
2022-12-26T21:03:35.707Z,11.90
2022-12-26T21:06:05.950Z,7.65
2022-12-26T21:08:32.620Z,7.22
2022-12-26T21:11:10.980Z,9.35
2022-12-26T21:13:38.308Z,8.10
2022-12-26T21:16:10.061Z,10.98
2022-12-26T21:18:37.057Z,12.18
2022-12-26T21:21:17.183Z,7.93
2022-12-26T21:23:44.422Z,15.52
2022-12-26T21:26:18.609Z,7.22
2022-12-26T21:31:12.006Z,10.13
2022-12-26T21:33:44.313Z,12.30
2022-12-26T21:36:13.365Z,12.35
2022-12-26T21:38:40.673Z,7.30
2022-12-26T21:41:11.368Z,11.02
2022-12-26T21:43:38.122Z,10.80
2022-12-26T21:46:11.095Z,10.30
2022-12-26T21:48:37.510Z,8.40
2022-12-26T21:51:08.535Z,9.57
2022-12-26T21:53:35.439Z,13.98
2022-12-26T21:56:06.555Z,6.78
2022-12-26T21:58:52.999Z,6.57
2022-12-26T22:01:21.418Z,7.30
2022-12-26T22:04:06.600Z,8.40
2022-12-26T22:06:33.069Z,8.95
2022-12-26T22:08:59.994Z,10.98
2022-12-26T22:11:45.510Z,14.05
2022-12-26T22:14:12.611Z,8.45
2022-12-26T22:16:39.510Z,10.68
2022-12-26T22:19:06.613Z,7.57
2022-12-26T22:21:33.218Z,10.35
2022-12-26T22:23:59.887Z,8.82
2022-12-26T22:26:28.051Z,12.27
2022-12-26T22:28:55.928Z,10.65
2022-12-26T22:31:32.189Z,9.73
2022-12-26T22:34:26.199Z,9.90
2022-12-26T22:36:55.744Z,16.23
2022-12-26T22:39:22.192Z,11.32
2022-12-26T22:41:48.534Z,11.45
2022-12-26T22:44:15.339Z,9.38
2022-12-26T22:46:42.123Z,10.52
2022-12-26T22:49:09.050Z,9.13
2022-12-26T22:51:36.812Z,9.40
2022-12-26T22:54:03.193Z,15.10
2022-12-26T22:56:29.982Z,13.15
2022-12-26T22:59:00.515Z,9.35
2022-12-26T23:01:27.127Z,8.65
2022-12-26T23:03:53.630Z,8.98
2022-12-26T23:06:31.552Z,9.38
2022-12-26T23:09:01.154Z,9.60
2022-12-26T23:11:34.679Z,8.98
2022-12-26T23:16:51.555Z,8.70
2022-12-26T23:20:01.518Z,8.95
2022-12-26T23:22:28.614Z,8.32
2022-12-26T23:24:54.948Z,8.75
2022-12-26T23:27:40.060Z,8.98
2022-12-26T23:30:19.365Z,10.05
2022-12-26T23:32:54.743Z,8.38
2022-12-26T23:35:22.412Z,9.40
2022-12-26T23:37:49.221Z,9.00
2022-12-26T23:40:16.929Z,11.02
2022-12-26T23:42:43.533Z,15.40
2022-12-26T23:45:11.679Z,15.60
2022-12-26T23:47:39.528Z,9.70
2022-12-26T23:50:07.110Z,10.80
2022-12-26T23:52:34.032Z,9.02
2022-12-26T23:55:00.397Z,9.15
2022-12-26T23:57:26.732Z,9.43
2022-12-26T23:59:53.253Z,9.15
